createdAt,value
2023-01-09T00:01:47.277Z,8.95
2023-01-09T00:04:15.357Z,8.50
2023-01-09T00:06:43.565Z,8.07
2023-01-09T00:09:11.864Z,9.23
2023-01-09T00:11:40.930Z,13.02
2023-01-09T00:14:10.898Z,9.43
2023-01-09T00:16:38.834Z,10.45
2023-01-09T00:19:06.588Z,10.85
2023-01-09T00:21:34.264Z,9.32
2023-01-09T00:24:01.934Z,11.57
2023-01-09T00:26:29.997Z,9.20
2023-01-09T00:29:02.737Z,9.80
2023-01-09T00:31:30.547Z,8.77
2023-01-09T00:34:02.365Z,8.70
2023-01-09T00:36:33.214Z,6.57
2023-01-09T00:39:00.904Z,8.57
2023-01-09T00:41:31.451Z,8.85
2023-01-09T00:44:04.215Z,9.32
2023-01-09T00:46:35.530Z,8.15
2023-01-09T00:49:06.161Z,8.48
2023-01-09T00:51:33.864Z,8.52
2023-01-09T00:54:03.993Z,7.80
2023-01-09T00:56:32.258Z,7.45
2023-01-09T00:59:00.030Z,6.20
2023-01-09T01:01:29.188Z,5.47
2023-01-09T01:03:57.100Z,6.88
2023-01-09T01:06:42.082Z,6.25
2023-01-09T01:09:10.220Z,7.53
2023-01-09T01:11:37.865Z,8.35
2023-01-09T01:14:09.731Z,7.80
2023-01-09T01:16:38.794Z,10.75
2023-01-09T01:19:06.775Z,6.32
2023-01-09T01:21:34.459Z,7.47
2023-01-09T01:24:04.391Z,8.63
2023-01-09T01:26:32.631Z,8.30
2023-01-09T01:29:00.445Z,8.48
2023-01-09T01:31:28.203Z,7.32
2023-01-09T01:33:58.550Z,7.80
2023-01-09T01:36:26.235Z,7.72
2023-01-09T01:38:54.112Z,6.95
2023-01-09T01:41:29.659Z,6.47
2023-01-09T01:44:00.123Z,6.75
2023-01-09T01:46:28.682Z,7.78
2023-01-09T01:49:06.967Z,6.30
2023-01-09T01:51:41.085Z,7.55
2023-01-09T01:54:14.939Z,8.73
2023-01-09T01:56:48.863Z,8.35
2023-01-09T01:59:21.583Z,7.60
2023-01-09T02:01:51.764Z,6.20
2023-01-09T02:04:21.155Z,6.65
2023-01-09T02:06:53.355Z,7.53
2023-01-09T02:09:22.890Z,6.35
2023-01-09T02:11:53.321Z,6.22
2023-01-09T02:14:24.184Z,7.32
2023-01-09T02:17:01.461Z,5.97
2023-01-09T02:19:54.683Z,6.82
2023-01-09T02:22:36.940Z,6.82
2023-01-09T02:25:38.041Z,7.32
2023-01-09T02:28:33.742Z,6.47
2023-01-09T02:31:09.097Z,6.30
2023-01-09T02:33:54.009Z,7.68
2023-01-09T02:36:32.581Z,6.93
2023-01-09T02:39:14.172Z,7.80
2023-01-09T02:41:49.963Z,6.72
2023-01-09T02:44:23.845Z,8.30
2023-01-09T02:47:07.775Z,6.88
2023-01-09T02:49:39.591Z,7.85
2023-01-09T02:52:30.877Z,6.80
2023-01-09T02:55:09.613Z,9.23
2023-01-09T02:57:51.782Z,7.35
2023-01-09T03:00:34.968Z,7.45
2023-01-09T03:03:12.347Z,8.60
2023-01-09T03:05:47.146Z,6.70
2023-01-09T03:08:19.325Z,7.63
2023-01-09T03:10:53.821Z,8.13
2023-01-09T03:13:25.441Z,8.50
2023-01-09T03:15:56.515Z,7.10
2023-01-09T03:18:29.860Z,9.60
2023-01-09T03:20:58.801Z,9.43
2023-01-09T03:23:26.546Z,8.95
2023-01-09T03:25:54.270Z,11.88
2023-01-09T03:28:29.822Z,8.15
2023-01-09T03:33:26.957Z,6.65
2023-01-09T03:35:54.626Z,9.10
2023-01-09T03:38:24.912Z,7.18
2023-01-09T03:40:52.575Z,11.10
2023-01-09T03:43:20.251Z,7.97
2023-01-09T03:45:48.034Z,9.02
2023-01-09T03:48:15.697Z,10.38
2023-01-09T03:50:47.218Z,9.13
2023-01-09T03:53:18.722Z,9.63
2023-01-09T03:55:47.693Z,8.07
2023-01-09T03:58:17.303Z,7.45
2023-01-09T04:00:48.723Z,9.10
2023-01-09T04:03:17.790Z,7.50
2023-01-09T04:05:51.690Z,8.20
2023-01-09T04:08:19.915Z,8.18
2023-01-09T04:10:48.251Z,11.27
2023-01-09T04:13:16.160Z,8.73
2023-01-09T04:15:43.904Z,7.57
2023-01-09T04:18:11.638Z,6.78
2023-01-09T04:20:39.338Z,7.43
2023-01-09T04:23:08.593Z,7.90
2023-01-09T04:25:36.388Z,6.70
2023-01-09T04:28:05.640Z,6.95
2023-01-09T04:30:33.314Z,7.10
2023-01-09T04:33:01.033Z,6.65
2023-01-09T04:35:29.197Z,6.65
2023-01-09T04:37:58.734Z,7.05
2023-01-09T04:40:27.976Z,6.70
2023-01-09T04:42:55.644Z,5.85
2023-01-09T04:45:23.368Z,6.63
2023-01-09T04:47:51.100Z,5.30
2023-01-09T04:50:21.759Z,4.90
2023-01-09T04:52:51.552Z,5.78
2023-01-09T04:55:19.386Z,4.88
2023-01-09T04:57:48.439Z,3.75
2023-01-09T05:00:17.040Z,4.68
2023-01-09T05:02:44.750Z,2.97
2023-01-09T05:05:12.719Z,2.60
2023-01-09T05:07:40.753Z,2.88
2023-01-09T05:10:10.293Z,1.90
2023-01-09T05:12:38.021Z,2.20
2023-01-09T05:15:09.234Z,1.73
2023-01-09T05:17:37.452Z,1.33
2023-01-09T05:20:05.528Z,1.40
2023-01-09T05:22:33.386Z,1.17
2023-01-09T05:25:01.074Z,0.75
2023-01-09T05:27:30.307Z,1.02
2023-01-09T05:30:00.972Z,0.80
2023-01-09T05:32:30.002Z,1.02
2023-01-09T05:34:59.959Z,0.70
2023-01-09T05:37:27.631Z,0.82
2023-01-09T05:39:55.291Z,0.80
2023-01-09T05:42:22.985Z,1.13
2023-01-09T05:44:50.788Z,0.93
2023-01-09T05:47:19.638Z,0.60
2023-01-09T05:49:48.687Z,0.70
2023-01-09T05:52:16.411Z,0.70
2023-01-09T05:54:44.067Z,0.70
2023-01-09T05:57:11.759Z,1.55
2023-01-09T05:59:39.440Z,0.65
2023-01-09T06:02:07.248Z,0.60
2023-01-09T06:04:34.983Z,0.70
2023-01-09T06:07:04.096Z,0.85
2023-01-09T06:09:33.669Z,0.55
2023-01-09T06:12:01.340Z,0.60
2023-01-09T06:14:29.780Z,0.50
2023-01-09T06:16:58.091Z,0.60
2023-01-09T06:19:25.831Z,0.80
2023-01-09T06:21:53.777Z,0.60
2023-01-09T06:24:22.860Z,0.60
2023-01-09T06:26:50.909Z,0.60
2023-01-09T06:29:18.789Z,0.40
2023-01-09T06:31:48.142Z,0.52
2023-01-09T06:34:15.772Z,0.70
2023-01-09T06:36:43.916Z,0.65
2023-01-09T06:39:13.294Z,0.60
2023-01-09T06:41:42.385Z,0.40
2023-01-09T06:44:10.035Z,0.60
2023-01-09T06:46:37.747Z,0.75
2023-01-09T06:49:05.424Z,0.38
2023-01-09T06:51:33.141Z,0.63
2023-01-09T06:54:00.829Z,0.60
2023-01-09T06:56:28.449Z,0.50
2023-01-09T06:58:57.484Z,0.60
2023-01-09T07:01:25.234Z,0.60
2023-01-09T07:03:53.029Z,0.50
2023-01-09T07:06:20.756Z,0.50
2023-01-09T07:08:48.452Z,1.60
2023-01-09T07:11:16.101Z,0.70
2023-01-09T07:13:43.921Z,0.70
2023-01-09T07:16:16.252Z,0.55
2023-01-09T07:18:43.970Z,0.50
2023-01-09T07:21:11.705Z,0.90
2023-01-09T07:23:39.350Z,0.60
2023-01-09T07:26:07.091Z,1.98
2023-01-09T07:28:34.811Z,0.95
2023-01-09T07:31:04.553Z,0.50
2023-01-09T07:33:36.756Z,0.75
2023-01-09T07:36:04.472Z,0.80
2023-01-09T07:38:33.036Z,0.50
2023-01-09T07:41:00.742Z,0.90
2023-01-09T07:43:28.578Z,0.60
2023-01-09T07:45:56.366Z,0.60
2023-01-09T07:48:24.031Z,0.50
2023-01-09T07:50:53.104Z,0.57
2023-01-09T07:53:20.788Z,0.75
2023-01-09T07:55:48.440Z,0.85
2023-01-09T07:58:16.116Z,0.75
2023-01-09T08:00:43.810Z,0.60
2023-01-09T08:03:11.598Z,0.90
2023-01-09T08:05:39.307Z,1.42
2023-01-09T08:08:08.557Z,2.17
2023-01-09T08:10:36.256Z,1.10
2023-01-09T08:13:03.939Z,0.60
2023-01-09T08:15:33.537Z,1.05
2023-01-09T08:18:01.307Z,1.35
2023-01-09T08:20:29.007Z,0.80
2023-01-09T08:22:56.876Z,0.85
2023-01-09T08:25:26.577Z,1.40
2023-01-09T08:27:54.229Z,0.70
2023-01-09T08:30:22.049Z,5.45
2023-01-09T08:32:51.286Z,0.80
2023-01-09T08:35:19.608Z,2.58
2023-01-09T08:37:47.786Z,1.83
2023-01-09T08:40:17.049Z,2.00
2023-01-09T08:43:04.319Z,0.90
2023-01-09T08:45:50.764Z,0.90
2023-01-09T08:48:18.602Z,0.68
2023-01-09T08:50:46.687Z,2.03
2023-01-09T08:53:15.409Z,1.95
2023-01-09T08:55:43.239Z,11.77
2023-01-09T08:58:12.656Z,1.00
2023-01-09T09:00:40.375Z,1.35
2023-01-09T09:03:08.186Z,2.20
2023-01-09T09:05:35.917Z,1.48
2023-01-09T09:08:07.134Z,1.45
2023-01-09T09:10:34.901Z,1.95
2023-01-09T09:13:02.777Z,1.67
2023-01-09T09:15:31.773Z,1.10
2023-01-09T09:18:01.796Z,1.65
2023-01-09T09:20:32.660Z,1.83
2023-01-09T09:23:00.394Z,1.67
2023-01-09T09:25:28.756Z,1.77
2023-01-09T09:27:56.935Z,2.15
2023-01-09T09:30:25.545Z,2.92
2023-01-09T09:32:54.643Z,2.65
2023-01-09T09:35:22.608Z,1.67
2023-01-09T09:38:03.297Z,1.67
2023-01-09T09:40:58.090Z,1.58
2023-01-09T09:43:58.249Z,2.38
2023-01-09T09:46:38.312Z,2.35
2023-01-09T09:49:14.093Z,1.27
2023-01-09T09:51:57.793Z,3.70
2023-01-09T09:54:36.347Z,1.27
2023-01-09T09:57:06.353Z,2.75
2023-01-09T09:59:36.874Z,2.67
2023-01-09T10:02:21.748Z,1.88
2023-01-09T10:04:56.223Z,3.10
2023-01-09T10:07:32.139Z,3.70
2023-01-09T10:10:05.101Z,1.88
2023-01-09T10:12:38.596Z,3.45
2023-01-09T10:15:17.602Z,1.85
2023-01-09T10:17:56.220Z,1.05
2023-01-09T10:20:59.597Z,3.60
2023-01-09T10:23:59.104Z,1.48
2023-01-09T10:26:32.138Z,1.40
2023-01-09T10:29:27.444Z,4.03
2023-01-09T10:32:05.590Z,2.47
2023-01-09T10:34:48.132Z,1.83
2023-01-09T10:37:21.290Z,1.45
2023-01-09T10:39:53.747Z,1.88
2023-01-09T10:42:24.613Z,2.95
2023-01-09T10:44:56.555Z,1.13
2023-01-09T10:47:29.520Z,3.20
2023-01-09T10:49:58.293Z,2.55
2023-01-09T10:52:34.636Z,3.38
2023-01-09T10:55:19.248Z,2.83
2023-01-09T10:57:51.542Z,2.83
2023-01-09T11:00:23.551Z,5.10
2023-01-09T11:02:52.635Z,1.75
2023-01-09T11:05:22.856Z,2.55
2023-01-09T11:07:57.099Z,4.20
2023-01-09T11:10:24.880Z,2.55
2023-01-09T11:13:12.574Z,4.53
2023-01-09T11:15:40.289Z,5.03
2023-01-09T11:18:24.435Z,1.73
2023-01-09T11:20:52.795Z,4.95
2023-01-09T11:23:31.046Z,2.47
2023-01-09T11:26:00.510Z,3.22
2023-01-09T11:28:28.808Z,1.67
2023-01-09T11:30:59.735Z,4.05
2023-01-09T11:33:29.881Z,1.50
2023-01-09T11:36:01.839Z,3.33
2023-01-09T11:38:32.873Z,2.88
2023-01-09T11:41:02.727Z,3.58
2023-01-09T11:43:38.557Z,4.25
2023-01-09T11:46:07.953Z,1.75
2023-01-09T11:48:40.730Z,1.27
2023-01-09T11:51:20.044Z,5.72
2023-01-09T11:54:08.782Z,4.05
2023-01-09T11:56:37.454Z,4.13
2023-01-09T11:59:12.985Z,1.83
2023-01-09T12:04:33.331Z,1.50
2023-01-09T12:07:21.387Z,2.78
2023-01-09T12:10:00.830Z,2.53
2023-01-09T12:12:37.074Z,1.73
2023-01-09T12:15:22.072Z,2.70
2023-01-09T12:18:03.523Z,1.03
2023-01-09T12:20:41.459Z,2.22
2023-01-09T12:23:30.865Z,3.25
2023-01-09T12:26:12.205Z,2.80
2023-01-09T12:29:21.170Z,3.08
2023-01-09T12:32:04.230Z,0.93
2023-01-09T12:34:53.797Z,3.90
2023-01-09T12:37:44.100Z,4.63
2023-01-09T12:40:32.394Z,2.63
2023-01-09T12:43:11.370Z,1.17
2023-01-09T12:45:51.386Z,1.92
2023-01-09T12:48:32.031Z,4.32
2023-01-09T12:51:26.458Z,1.40
2023-01-09T12:54:03.186Z,2.67
2023-01-09T12:56:34.534Z,1.10
2023-01-09T12:59:13.117Z,4.72
2023-01-09T13:01:46.348Z,1.63
2023-01-09T13:04:20.563Z,4.10
2023-01-09T13:06:54.639Z,2.67
2023-01-09T13:09:27.495Z,2.55
2023-01-09T13:12:03.641Z,4.88
2023-01-09T13:14:45.482Z,1.27
2023-01-09T13:17:19.714Z,3.80
2023-01-09T13:19:47.441Z,1.15
2023-01-09T13:22:18.017Z,2.90
2023-01-09T13:25:03.957Z,2.90
2023-01-09T13:30:16.423Z,3.97
2023-01-09T13:32:58.450Z,8.32
2023-01-09T13:35:26.225Z,2.08
2023-01-09T13:37:54.835Z,7.90
2023-01-09T13:40:30.437Z,2.47
2023-01-09T13:43:00.002Z,1.67
2023-01-09T13:45:30.676Z,3.17
2023-01-09T13:48:29.371Z,4.03
2023-01-09T13:51:37.161Z,2.28
2023-01-09T13:54:05.133Z,4.13
2023-01-09T13:56:32.899Z,2.72
2023-01-09T13:59:05.344Z,3.78
2023-01-09T14:01:47.680Z,4.38
2023-01-09T14:04:43.081Z,2.30
2023-01-09T14:07:24.124Z,5.18
2023-01-09T14:09:56.925Z,6.15
2023-01-09T14:12:25.120Z,6.13
2023-01-09T14:14:58.707Z,5.25
2023-01-09T14:17:36.543Z,3.83
2023-01-09T14:20:07.988Z,2.33
2023-01-09T14:22:46.159Z,2.58
2023-01-09T14:25:27.060Z,2.85
2023-01-09T14:28:21.936Z,2.70
2023-01-09T14:31:08.728Z,5.38
2023-01-09T14:33:38.011Z,3.47
2023-01-09T14:36:25.125Z,5.93
2023-01-09T14:38:55.153Z,1.67
2023-01-09T14:41:48.893Z,2.63
2023-01-09T14:44:28.285Z,2.17
2023-01-09T14:46:59.666Z,2.25
2023-01-09T14:49:36.497Z,3.03
2023-01-09T14:52:13.893Z,1.85
2023-01-09T14:54:44.241Z,1.60
2023-01-09T14:57:25.511Z,1.83
2023-01-09T15:00:01.241Z,4.80
2023-01-09T15:02:31.963Z,3.42
2023-01-09T15:05:05.974Z,1.52
2023-01-09T15:07:40.509Z,1.40
2023-01-09T15:10:16.167Z,1.73
2023-01-09T15:12:46.147Z,3.20
2023-01-09T15:15:16.179Z,3.35
2023-01-09T15:17:49.980Z,2.28
2023-01-09T15:20:24.862Z,4.07
2023-01-09T15:22:54.835Z,7.38
2023-01-09T15:25:33.861Z,5.95
2023-01-09T15:28:25.039Z,2.75
2023-01-09T15:30:56.990Z,1.52
2023-01-09T15:33:27.666Z,3.40
2023-01-09T15:36:02.011Z,1.25
2023-01-09T15:38:32.944Z,2.72
2023-01-09T15:41:05.378Z,3.72
2023-01-09T15:43:33.214Z,1.77
2023-01-09T15:46:02.388Z,2.17
2023-01-09T15:48:32.950Z,4.60
2023-01-09T15:51:06.761Z,9.43
2023-01-09T15:53:35.114Z,15.50
2023-01-09T15:56:14.929Z,2.33
2023-01-09T15:58:47.225Z,1.75
2023-01-09T16:01:30.971Z,3.28
2023-01-09T16:04:05.678Z,3.13
2023-01-09T16:06:37.262Z,2.90
2023-01-09T16:09:06.248Z,2.22
2023-01-09T16:11:36.883Z,3.42
2023-01-09T16:14:15.418Z,9.82
2023-01-09T16:16:47.129Z,5.45
2023-01-09T16:19:32.149Z,5.35
2023-01-09T16:22:02.676Z,3.00
2023-01-09T16:24:40.136Z,3.05
2023-01-09T16:27:22.394Z,1.98
2023-01-09T16:29:55.290Z,1.52
2023-01-09T16:32:28.067Z,1.95
2023-01-09T16:34:57.257Z,1.95
2023-01-09T16:37:27.108Z,3.88
2023-01-09T16:40:24.473Z,1.48
2023-01-09T16:43:03.328Z,3.55
2023-01-09T16:45:33.876Z,1.30
2023-01-09T16:48:02.168Z,1.67
2023-01-09T16:50:30.429Z,1.60
2023-01-09T16:53:08.122Z,2.47
2023-01-09T16:55:35.873Z,2.20
2023-01-09T16:58:04.199Z,2.55
2023-01-09T17:00:32.102Z,3.10
2023-01-09T17:03:00.771Z,3.85
2023-01-09T17:05:28.504Z,2.42
2023-01-09T17:07:57.008Z,2.05
2023-01-09T17:10:26.140Z,2.95
2023-01-09T17:12:53.867Z,4.57
2023-01-09T17:15:21.556Z,3.83
2023-01-09T17:17:49.259Z,2.85
2023-01-09T17:20:18.964Z,1.83
2023-01-09T17:22:46.705Z,3.40
2023-01-09T17:25:33.746Z,1.58
2023-01-09T17:28:21.246Z,2.38
2023-01-09T17:30:49.041Z,3.13
2023-01-09T17:33:18.358Z,2.92
2023-01-09T17:35:46.244Z,4.40
2023-01-09T17:38:14.967Z,3.13
2023-01-09T17:40:42.937Z,3.53
2023-01-09T17:43:12.932Z,8.32
2023-01-09T17:45:42.585Z,2.53
2023-01-09T17:48:16.288Z,5.25
2023-01-09T17:50:44.410Z,2.00
2023-01-09T17:53:12.153Z,7.57
2023-01-09T17:55:41.134Z,4.05
2023-01-09T17:58:09.433Z,6.68
2023-01-09T18:00:38.595Z,4.88
2023-01-09T18:03:07.773Z,5.07
2023-01-09T18:05:36.946Z,5.10
2023-01-09T18:08:05.851Z,6.57
2023-01-09T18:10:33.616Z,3.88
2023-01-09T18:13:01.523Z,3.58
2023-01-09T18:15:29.248Z,3.70
2023-01-09T18:17:58.315Z,3.67
2023-01-09T18:20:26.086Z,5.15
2023-01-09T18:22:53.961Z,2.17
2023-01-09T18:25:21.733Z,2.63
2023-01-09T18:27:49.514Z,6.50
2023-01-09T18:30:17.369Z,4.72
2023-01-09T18:32:45.097Z,3.10
2023-01-09T18:35:14.173Z,2.58
2023-01-09T18:37:42.009Z,4.25
2023-01-09T18:40:11.035Z,6.22
2023-01-09T18:42:40.303Z,5.50
2023-01-09T18:45:09.036Z,3.38
2023-01-09T18:47:36.726Z,3.75
2023-01-09T18:50:04.854Z,4.97
2023-01-09T18:52:33.927Z,4.05
2023-01-09T18:55:01.699Z,1.85
2023-01-09T18:57:29.449Z,3.95
2023-01-09T18:59:57.182Z,4.18
2023-01-09T19:02:26.685Z,2.38
2023-01-09T19:04:54.714Z,2.80
2023-01-09T19:07:22.463Z,3.08
2023-01-09T19:09:51.584Z,4.78
2023-01-09T19:12:19.277Z,5.07
2023-01-09T19:14:47.107Z,3.35
2023-01-09T19:17:15.424Z,3.33
2023-01-09T19:19:43.146Z,8.23
2023-01-09T19:22:10.889Z,4.82
2023-01-09T19:24:38.785Z,3.58
2023-01-09T19:27:08.045Z,3.67
2023-01-09T19:29:36.796Z,5.38
2023-01-09T19:32:08.340Z,6.03
2023-01-09T19:34:36.440Z,2.58
2023-01-09T19:37:04.428Z,5.90
2023-01-09T19:39:32.644Z,3.67
2023-01-09T19:42:00.433Z,3.28
2023-01-09T19:44:30.400Z,6.75
2023-01-09T19:46:58.172Z,3.58
2023-01-09T19:49:25.897Z,4.70
2023-01-09T19:51:55.119Z,2.85
2023-01-09T19:54:23.037Z,3.65
2023-01-09T19:56:50.792Z,3.15
2023-01-09T19:59:18.728Z,2.05
2023-01-09T20:01:48.050Z,3.40
2023-01-09T20:04:17.351Z,4.72
2023-01-09T20:06:46.729Z,2.45
2023-01-09T20:09:16.835Z,2.42
2023-01-09T20:11:45.637Z,2.97
2023-01-09T20:14:14.548Z,2.20
2023-01-09T20:16:43.160Z,2.85
2023-01-09T20:19:14.153Z,3.58
2023-01-09T20:21:43.161Z,3.08
2023-01-09T20:24:14.449Z,3.80
2023-01-09T20:26:42.302Z,3.30
2023-01-09T20:29:10.240Z,1.58
2023-01-09T20:31:38.220Z,1.85
2023-01-09T20:34:06.091Z,4.03
2023-01-09T20:36:35.253Z,4.88
2023-01-09T20:39:06.063Z,3.45
2023-01-09T20:41:34.312Z,2.28
2023-01-09T20:44:04.831Z,2.25
2023-01-09T20:46:36.639Z,1.50
2023-01-09T20:49:06.513Z,3.15
2023-01-09T20:51:36.500Z,1.63
2023-01-09T20:54:04.417Z,2.08
2023-01-09T20:56:33.652Z,1.45
2023-01-09T20:59:01.596Z,2.63
2023-01-09T21:01:29.900Z,3.83
2023-01-09T21:03:58.395Z,1.92
2023-01-09T21:06:27.249Z,1.48
2023-01-09T21:08:56.382Z,2.10
2023-01-09T21:11:24.505Z,2.55
2023-01-09T21:13:52.608Z,2.00
2023-01-09T21:16:24.257Z,1.67
2023-01-09T21:18:52.493Z,3.42
2023-01-09T21:21:21.817Z,1.38
2023-01-09T21:23:52.394Z,2.22
2023-01-09T21:26:24.360Z,2.65
2023-01-09T21:28:55.135Z,2.92
2023-01-09T21:31:25.452Z,2.85
2023-01-09T21:33:54.643Z,1.85
2023-01-09T21:36:22.401Z,2.58
2023-01-09T21:38:52.091Z,5.88
2023-01-09T21:41:40.036Z,1.70
2023-01-09T21:44:29.571Z,2.60
2023-01-09T21:46:57.978Z,2.47
2023-01-09T21:49:26.981Z,2.05
2023-01-09T21:51:55.062Z,1.70
2023-01-09T21:54:23.547Z,1.60
2023-01-09T21:56:53.037Z,1.70
2023-01-09T21:59:21.047Z,2.88
2023-01-09T22:01:50.129Z,2.97
2023-01-09T22:04:20.055Z,1.55
2023-01-09T22:06:47.817Z,2.10
2023-01-09T22:09:16.295Z,4.30
2023-01-09T22:11:44.901Z,1.63
2023-01-09T22:14:15.569Z,2.47
2023-01-09T22:16:43.635Z,1.95
2023-01-09T22:19:12.124Z,2.58
2023-01-09T22:21:40.115Z,1.65
2023-01-09T22:24:08.297Z,1.90
2023-01-09T22:26:36.122Z,2.15
2023-01-09T22:29:06.675Z,1.88
2023-01-09T22:31:39.722Z,2.88
2023-01-09T22:34:07.726Z,1.83
2023-01-09T22:36:35.667Z,1.60
2023-01-09T22:39:03.557Z,1.50
2023-01-09T22:41:31.307Z,1.65
2023-01-09T22:43:59.213Z,1.80
2023-01-09T22:46:27.513Z,2.05
2023-01-09T22:48:56.591Z,1.67
2023-01-09T22:51:24.609Z,1.70
2023-01-09T22:53:52.504Z,1.83
2023-01-09T23:04:44.601Z,2.17
2023-01-09T23:07:12.402Z,2.42
2023-01-09T23:09:40.092Z,3.15
2023-01-09T23:12:08.340Z,2.08
2023-01-09T23:14:37.938Z,2.05
2023-01-09T23:17:07.493Z,2.22
2023-01-09T23:19:37.028Z,2.20
2023-01-09T23:22:05.868Z,2.33
2023-01-09T23:24:34.340Z,2.40
2023-01-09T23:27:02.083Z,2.50
2023-01-09T23:29:32.900Z,2.45
2023-01-09T23:32:00.593Z,2.90
2023-01-09T23:34:28.394Z,3.38
2023-01-09T23:36:57.896Z,2.95
2023-01-09T23:39:25.720Z,2.30
2023-01-09T23:42:11.113Z,3.17
2023-01-09T23:44:38.891Z,3.65
2023-01-09T23:47:06.611Z,2.90
2023-01-09T23:49:34.320Z,2.72
2023-01-09T23:52:05.991Z,4.82
2023-01-09T23:54:33.781Z,3.20
2023-01-09T23:57:04.120Z,3.20
2023-01-09T23:59:31.849Z,2.85
